Time;durP1;ratioP1;P1;durP2;ratioP2;P2;SDS_P1;SDS_P2;PMS_P1;PMS_P2;Temp;Humidity;BMP_temperature;BMP_pressure;BME280_temperature;BME280_humidity;BME280_pressure;Samples;Min_cycle;Max_cycle;Signal;HPM_P1;HPM_P2
2023/07/19 00:00:10;;;;;;;8.07;4.88;;;;;;;23.44;54.80;100243.88;4115215;28;20034;-64
2023/07/19 00:02:16;;;;;;;9.80;4.13;;;;;;;23.41;54.95;100243.13;4091852;29;20244;-64
2023/07/19 00:04:19;;;;;;;7.15;4.15;;;;;;;23.37;55.02;100236.25;4088066;29;20589;-64
2023/07/19 00:06:22;;;;;;;5.57;3.80;;;;;;;23.35;55.00;100244.25;4096654;28;20046;-64
2023/07/19 00:08:25;;;;;;;8.50;3.80;;;;;;;23.33;55.14;100238.16;4113205;28;20488;-64
2023/07/19 00:10:29;;;;;;;10.48;4.75;;;;;;;23.29;55.45;100245.38;4110964;28;20042;-64
2023/07/19 00:12:33;;;;;;;7.15;4.43;;;;;;;23.25;55.65;100254.38;4113188;28;20074;-65
2023/07/19 00:14:55;;;;;;;8.15;3.72;;;;;;;23.22;55.56;100257.19;4107845;28;20051;-64
2023/07/19 00:16:58;;;;;;;9.85;4.68;;;;;;;23.22;55.48;100249.22;4112284;28;20382;-64
2023/07/19 00:19:01;;;;;;;10.70;4.10;;;;;;;23.15;55.86;100256.56;4113442;28;20069;-64
2023/07/19 00:21:21;;;;;;;8.48;4.85;;;;;;;23.12;55.59;100263.78;4112465;28;20046;-64
2023/07/19 00:23:24;;;;;;;6.40;4.38;;;;;;;23.01;56.00;100259.75;4109594;28;20110;-64
2023/07/19 00:25:29;;;;;;;11.27;4.90;;;;;;;23.04;56.03;100257.91;4113693;28;20414;-64
2023/07/19 00:27:31;;;;;;;7.38;4.47;;;;;;;22.97;56.02;100260.81;4112525;28;20043;-64
2023/07/19 00:29:34;;;;;;;9.68;4.57;;;;;;;22.95;56.15;100261.78;4094243;29;20126;-64
2023/07/19 00:31:38;;;;;;;7.97;3.80;;;;;;;22.94;56.42;100258.28;4094050;29;20046;-64
2023/07/19 00:33:41;;;;;;;7.15;3.85;;;;;;;22.91;56.57;100260.16;4109702;28;20477;-64
2023/07/19 00:35:44;;;;;;;7.78;4.13;;;;;;;22.90;56.60;100264.63;4108404;28;20575;-64
2023/07/19 00:37:48;;;;;;;12.73;4.20;;;;;;;22.89;56.64;100267.34;4112575;28;20077;-64
2023/07/19 00:39:51;;;;;;;6.82;3.75;;;;;;;22.87;56.68;100264.75;4085789;29;20067;-64
2023/07/19 00:41:57;;;;;;;7.90;4.65;;;;;;;22.87;57.01;100255.91;4089409;29;20222;-63
2023/07/19 00:43:59;;;;;;;7.47;4.13;;;;;;;22.83;57.20;100261.34;4106128;28;20039;-64
2023/07/19 00:46:02;;;;;;;9.50;4.55;;;;;;;22.80;57.41;100260.63;4093940;29;20066;-64
2023/07/19 00:48:05;;;;;;;6.78;4.00;;;;;;;22.76;57.49;100254.56;4092950;29;20497;-64
2023/07/19 00:50:10;;;;;;;7.37;4.07;;;;;;;22.76;57.41;100259.00;4111688;28;20544;-64
2023/07/19 00:52:13;;;;;;;6.63;4.70;;;;;;;22.72;57.53;100254.75;4094438;29;20301;-64
2023/07/19 00:54:16;;;;;;;10.47;4.53;;;;;;;22.69;57.56;100263.66;4095587;29;20046;-64
2023/07/19 00:56:21;;;;;;;8.23;4.20;;;;;;;22.65;57.85;100265.59;4112925;28;20389;-64
2023/07/19 00:58:25;;;;;;;9.82;4.85;;;;;;;22.63;58.11;100259.50;4093451;29;20803;-64
2023/07/19 01:00:30;;;;;;;9.35;4.47;;;;;;;22.59;58.37;100263.19;4078405;29;20047;-64
2023/07/19 01:02:33;;;;;;;9.25;4.30;;;;;;;22.53;58.72;100263.44;4112757;28;20045;-64
2023/07/19 01:04:36;;;;;;;7.57;4.68;;;;;;;22.50;58.68;100258.22;4110087;28;20236;-65
2023/07/19 01:06:39;;;;;;;10.43;5.15;;;;;;;22.54;58.80;100261.63;4095560;29;20098;-65
2023/07/19 01:08:42;;;;;;;8.88;4.28;;;;;;;22.50;58.64;100266.19;4108022;28;20070;-65
2023/07/19 01:10:46;;;;;;;9.63;4.82;;;;;;;22.48;58.87;100263.59;4112296;28;20082;-65
2023/07/19 01:13:02;;;;;;;7.68;4.38;;;;;;;22.47;58.69;100263.66;4088116;29;20406;-65
2023/07/19 01:15:09;;;;;;;8.90;4.45;;;;;;;22.45;58.99;100258.41;4111780;28;20401;-65
2023/07/19 01:17:12;;;;;;;10.45;4.35;;;;;;;22.47;58.96;100256.59;4092577;29;20052;-65
2023/07/19 01:19:16;;;;;;;12.50;4.45;;;;;;;22.40;59.43;100254.22;4112365;28;20031;-65
2023/07/19 01:21:19;;;;;;;8.77;4.03;;;;;;;22.37;59.63;100249.91;4096048;28;20071;-65
2023/07/19 01:23:28;;;;;;;8.63;4.22;;;;;;;22.41;59.55;100253.28;4075017;29;20060;-65
2023/07/19 01:25:31;;;;;;;7.72;4.20;;;;;;;22.39;59.70;100247.22;4092761;28;20044;-65
2023/07/19 01:27:34;;;;;;;6.28;4.18;;;;;;;22.36;59.91;100258.78;4111467;28;20138;-65
2023/07/19 01:29:37;;;;;;;7.68;4.55;;;;;;;22.35;60.02;100257.03;4091600;29;20687;-65
2023/07/19 01:31:40;;;;;;;9.82;4.00;;;;;;;22.35;60.12;100250.88;4094353;29;20126;-65
2023/07/19 01:33:43;;;;;;;6.88;4.10;;;;;;;22.33;60.25;100255.34;4084908;29;20517;-65
2023/07/19 01:35:47;;;;;;;7.63;4.47;;;;;;;22.23;60.89;100260.97;4111323;28;20092;-65
2023/07/19 01:37:49;;;;;;;6.85;4.35;;;;;;;22.18;60.91;100262.06;4089052;29;20032;-65
2023/07/19 01:39:53;;;;;;;6.97;4.03;;;;;;;22.18;61.16;100265.59;4087990;29;20044;-65
2023/07/19 01:41:56;;;;;;;6.35;3.92;;;;;;;22.18;61.21;100262.06;4092178;29;20055;-65
2023/07/19 01:43:58;;;;;;;8.68;3.90;;;;;;;22.19;61.22;100262.00;4109209;28;20042;-65
2023/07/19 01:46:01;;;;;;;6.45;4.20;;;;;;;22.13;61.67;100256.94;4103212;28;20121;-65
2023/07/19 01:48:05;;;;;;;8.00;4.63;;;;;;;22.06;62.05;100251.00;4086436;29;20126;-65
2023/07/19 01:50:08;;;;;;;7.22;4.25;;;;;;;21.98;62.32;100253.09;4109209;28;20492;-65
2023/07/19 01:52:11;;;;;;;7.43;4.37;;;;;;;21.97;62.08;100254.00;4096253;28;20098;-65
2023/07/19 01:54:14;;;;;;;7.80;4.90;;;;;;;21.94;62.00;100249.66;4081161;29;20051;-65
2023/07/19 01:56:18;;;;;;;5.95;4.10;;;;;;;21.91;61.96;100249.78;4095234;28;20111;-65
2023/07/19 01:58:21;;;;;;;6.72;4.28;;;;;;;21.88;62.07;100249.06;4095685;29;20040;-65
2023/07/19 02:00:24;;;;;;;6.22;4.53;;;;;;;21.89;62.00;100246.34;4094151;29;20039;-65
2023/07/19 02:02:27;;;;;;;12.25;5.18;;;;;;;21.86;62.22;100243.81;4095884;29;20058;-64
2023/07/19 02:04:30;;;;;;;8.27;4.35;;;;;;;21.84;62.35;100243.00;4092275;28;20039;-65
2023/07/19 02:06:33;;;;;;;6.30;4.07;;;;;;;21.81;62.55;100235.16;4097085;28;20106;-65
2023/07/19 02:08:36;;;;;;;8.00;4.82;;;;;;;21.79;62.56;100234.38;4111403;28;20054;-64
2023/07/19 02:10:39;;;;;;;7.70;4.30;;;;;;;21.78;62.62;100237.94;4111386;28;20085;-64
2023/07/19 02:12:43;;;;;;;7.13;4.50;;;;;;;21.72;62.90;100233.72;4112598;28;20100;-64
2023/07/19 02:14:45;;;;;;;8.75;4.40;;;;;;;21.70;62.92;100224.97;4109056;28;20400;-64
2023/07/19 02:16:48;;;;;;;11.45;4.80;;;;;;;21.68;62.93;100221.50;4087785;29;20032;-64
2023/07/19 02:18:51;;;;;;;8.40;4.30;;;;;;;21.66;63.06;100217.22;4110696;28;20069;-63
2023/07/19 02:20:55;;;;;;;7.72;4.25;;;;;;;21.66;63.09;100211.91;4111380;28;20049;-64
2023/07/19 02:22:57;;;;;;;10.30;5.55;;;;;;;21.68;62.97;100208.28;4109266;28;20546;-64
2023/07/19 02:25:00;;;;;;;8.45;5.18;;;;;;;21.70;63.02;100209.09;4089748;29;20055;-64
2023/07/19 02:27:07;;;;;;;9.93;4.75;;;;;;;21.72;63.00;100214.34;4112180;28;20046;-63
2023/07/19 02:29:11;;;;;;;5.85;4.15;;;;;;;21.70;63.07;100210.88;4112093;28;20492;-64
2023/07/19 02:31:17;;;;;;;9.63;4.82;;;;;;;21.70;62.61;100206.47;4111359;28;20101;-64
2023/07/19 02:33:20;;;;;;;7.53;4.72;;;;;;;21.69;62.69;100204.72;4111455;28;20042;-63
2023/07/19 02:35:23;;;;;;;7.70;4.78;;;;;;;21.70;62.37;100205.56;4084739;29;20051;-65
2023/07/19 02:37:26;;;;;;;7.25;4.88;;;;;;;21.69;62.35;100211.81;4111722;28;20582;-64
2023/07/19 02:39:30;;;;;;;11.00;5.10;;;;;;;21.68;62.30;100218.84;4095113;29;20046;-64
2023/07/19 02:41:33;;;;;;;;;;;;;;;21.52;62.82;100217.69;4095837;29;20509;-65
2023/07/19 02:43:37;;;;;;;9.25;5.68;;;;;;;21.55;62.56;100226.38;4093293;29;19923;-65
2023/07/19 02:45:42;;;;;;;8.65;5.03;;;;;;;21.59;62.51;100222.69;4095232;29;20043;-65
2023/07/19 02:47:44;;;;;;;12.30;5.65;;;;;;;21.60;62.37;100220.94;4110036;28;20516;-64
2023/07/19 02:49:48;;;;;;;11.98;4.93;;;;;;;21.62;62.17;100224.38;4091647;29;20493;-65
2023/07/19 02:51:52;;;;;;;9.77;5.55;;;;;;;21.65;62.55;100218.97;4079906;29;20047;-64
2023/07/19 02:53:55;;;;;;;9.05;5.28;;;;;;;21.64;62.41;100229.59;4095991;28;20036;-65
2023/07/19 02:55:57;;;;;;;8.70;5.13;;;;;;;21.59;62.65;100224.50;4094666;29;21913;-64
2023/07/19 02:58:00;;;;;;;8.60;4.88;;;;;;;21.52;62.87;100221.19;4113960;23;20039;-74
2023/07/19 03:00:04;;;;;;;9.13;5.00;;;;;;;21.54;62.77;100235.25;4126257;28;20117;-74
2023/07/19 03:02:09;;;;;;;9.60;5.17;;;;;;;21.54;62.92;100231.75;4102885;28;20556;-74
2023/07/19 03:04:12;;;;;;;8.35;4.90;;;;;;;21.46;63.16;100239.88;4111015;28;20704;-74
2023/07/19 03:06:15;;;;;;;9.15;5.13;;;;;;;21.39;63.49;100238.38;4115021;28;20047;-74
2023/07/19 03:08:17;;;;;;;6.93;4.60;;;;;;;21.43;63.25;100242.63;4103244;28;20126;-74
2023/07/19 03:10:20;;;;;;;7.85;4.85;;;;;;;21.41;63.39;100247.13;4097207;28;20032;-74
2023/07/19 03:12:24;;;;;;;9.32;5.40;;;;;;;21.39;63.50;100241.88;4089399;29;20075;-74
2023/07/19 03:14:27;;;;;;;11.10;6.35;;;;;;;21.38;63.63;100253.38;4098320;28;20082;-73
2023/07/19 03:16:30;;;;;;;8.60;6.03;;;;;;;21.36;63.72;100252.56;4096731;29;20505;-74
2023/07/19 03:18:34;;;;;;;10.27;5.22;;;;;;;21.38;63.72;100253.38;4115750;28;20055;-74
2023/07/19 03:20:38;;;;;;;13.60;5.40;;;;;;;21.39;63.88;100256.88;4100207;29;20078;-73
2023/07/19 03:22:41;;;;;;;8.27;5.25;;;;;;;21.39;63.81;100256.88;4097112;29;20118;-73
2023/07/19 03:24:44;;;;;;;11.38;6.22;;;;;;;21.39;64.00;100265.69;4083031;29;20558;-74
2023/07/19 03:26:47;;;;;;;13.20;6.50;;;;;;;21.39;64.05;100262.16;4114067;28;20604;-73
2023/07/19 03:28:50;;;;;;;11.48;5.82;;;;;;;21.39;64.08;100268.34;4099526;29;20067;-73
2023/07/19 03:30:54;;;;;;;8.85;6.25;;;;;;;21.41;63.89;100266.50;4097776;29;20461;-74
2023/07/19 03:32:56;;;;;;;8.52;5.38;;;;;;;21.38;64.17;100266.59;4111571;28;20054;-74
2023/07/19 03:35:01;;;;;;;9.45;6.55;;;;;;;21.39;64.25;100262.16;4081269;29;20036;-74
2023/07/19 03:37:04;;;;;;;9.20;5.57;;;;;;;21.36;64.37;100270.22;4089669;28;20039;-74
2023/07/19 03:39:07;;;;;;;8.53;5.60;;;;;;;21.36;64.44;100270.22;4096226;29;20450;-74
2023/07/19 03:41:11;;;;;;;8.38;5.78;;;;;;;21.30;64.70;100270.41;4113414;28;20364;-74
2023/07/19 03:43:15;;;;;;;9.17;5.93;;;;;;;21.24;64.76;100274.13;4112332;28;20126;-74
2023/07/19 03:45:17;;;;;;;11.35;7.25;;;;;;;21.24;64.94;100272.34;4099407;28;20381;-74
2023/07/19 03:47:20;;;;;;;9.23;6.15;;;;;;;21.21;65.03;100282.16;4096289;29;20130;-74
2023/07/19 03:49:23;;;;;;;9.27;6.45;;;;;;;21.19;65.16;100287.50;4111751;28;20126;-73
2023/07/19 03:51:28;;;;;;;10.20;6.50;;;;;;;21.17;65.30;100288.47;4099884;28;20047;-74
2023/07/19 03:53:31;;;;;;;10.48;6.20;;;;;;;21.18;65.43;100295.47;4080402;29;20829;-74
2023/07/19 03:55:34;;;;;;;12.73;6.47;;;;;;;21.19;65.44;100290.16;4096665;29;20493;-73
2023/07/19 03:57:37;;;;;;;12.63;7.05;;;;;;;21.18;65.52;100288.41;4114162;28;20049;-73
2023/07/19 03:59:42;;;;;;;10.13;6.50;;;;;;;21.19;65.71;100295.44;4113895;28;20412;-73
2023/07/19 04:01:45;;;;;;;11.43;6.22;;;;;;;21.18;65.62;100303.41;4111360;28;20045;-72
2023/07/19 04:03:47;;;;;;;11.45;6.72;;;;;;;21.11;66.04;100300.09;4113423;28;20047;-71
2023/07/19 04:05:53;;;;;;;10.38;6.80;;;;;;;21.10;65.98;100296.59;4094480;28;20079;-71
2023/07/19 04:08:01;;;;;;;8.23;5.83;;;;;;;21.11;65.93;100289.50;4111214;28;20070;-70
2023/07/19 04:10:05;;;;;;;12.30;6.18;;;;;;;21.25;64.81;100287.28;4113111;28;20349;-63
2023/07/19 04:12:09;;;;;;;11.18;5.93;;;;;;;21.59;64.01;100293.25;4080741;29;20142;-63
2023/07/19 04:14:14;;;;;;;7.93;5.00;;;;;;;21.83;63.56;100291.56;4111603;28;20559;-63
2023/07/19 04:16:17;;;;;;;7.47;4.97;;;;;;;21.99;62.81;100288.34;4092806;29;20072;-63
2023/07/19 04:18:20;;;;;;;7.35;5.53;;;;;;;22.10;62.42;100288.84;4093521;29;20036;-63
2023/07/19 04:20:23;;;;;;;8.57;5.90;;;;;;;22.18;62.58;100292.09;4090156;29;20098;-62
2023/07/19 04:22:26;;;;;;;10.38;5.80;;;;;;;22.25;62.41;100293.59;4092971;28;20167;-62
2023/07/19 04:24:30;;;;;;;12.32;5.97;;;;;;;22.31;62.43;100289.81;4095905;28;20047;-62
2023/07/19 04:26:33;;;;;;;8.27;5.43;;;;;;;22.34;62.31;100286.22;4096497;29;20453;-62
2023/07/19 04:28:36;;;;;;;10.27;5.60;;;;;;;22.38;62.22;100291.34;4095252;28;20131;-62
2023/07/19 04:30:39;;;;;;;8.57;5.72;;;;;;;22.45;62.02;100284.03;4095092;28;20057;-62
2023/07/19 04:32:42;;;;;;;9.30;6.85;;;;;;;22.49;62.18;100283.00;4109307;28;20057;-62
2023/07/19 04:34:45;;;;;;;9.80;5.88;;;;;;;22.38;62.43;100285.19;4109095;28;20065;-62
2023/07/19 04:36:48;;;;;;;10.73;7.30;;;;;;;22.28;62.79;100287.28;4096354;28;20481;-63
2023/07/19 04:38:51;;;;;;;9.20;7.18;;;;;;;22.22;63.23;100298.13;4099455;28;20035;-62
2023/07/19 04:41:02;;;;;;;9.98;8.23;;;;;;;22.17;63.29;100300.09;4109366;28;20749;-63
2023/07/19 04:43:06;;;;;;;9.90;6.45;;;;;;;21.99;63.71;100298.94;4089202;29;20047;-62
2023/07/19 04:45:10;;;;;;;8.20;6.05;;;;;;;22.10;63.48;100299.44;4099083;29;20069;-63
2023/07/19 04:47:13;;;;;;;8.93;5.90;;;;;;;22.14;63.44;100303.69;4115827;28;20102;-63
2023/07/19 04:49:16;;;;;;;9.77;6.45;;;;;;;22.08;63.61;100304.78;4099946;29;20077;-63
2023/07/19 04:51:19;;;;;;;11.55;6.30;;;;;;;22.17;63.39;100311.53;4112661;28;20038;-63
2023/07/19 04:53:25;;;;;;;8.63;5.65;;;;;;;22.28;62.95;100306.72;4098653;29;20047;-63
2023/07/19 04:55:30;;;;;;;9.00;5.95;;;;;;;22.42;62.51;100310.66;4105550;28;20460;-63
2023/07/19 04:57:35;;;;;;;12.93;6.40;;;;;;;22.52;62.36;100312.03;4112876;28;20054;-63
2023/07/19 04:59:38;;;;;;;7.93;5.32;;;;;;;22.54;62.03;100312.81;4108288;28;20302;-63
2023/07/19 05:01:40;;;;;;;9.77;6.75;;;;;;;22.57;62.13;100310.06;4108670;28;20061;-63
2023/07/19 05:03:43;;;;;;;11.57;6.32;;;;;;;22.53;62.04;100313.78;4113819;28;20042;-62
2023/07/19 05:05:47;;;;;;;11.15;6.07;;;;;;;22.53;62.19;100315.53;4110566;28;20031;-63
2023/07/19 05:07:51;;;;;;;13.20;5.97;;;;;;;22.53;62.30;100307.59;4111330;28;20102;-63
2023/07/19 05:09:54;;;;;;;11.80;6.43;;;;;;;22.59;61.99;100308.22;4100681;28;20097;-63
2023/07/19 05:11:57;;;;;;;12.70;6.47;;;;;;;22.54;62.34;100315.47;4104803;28;20038;-62
2023/07/19 05:14:01;;;;;;;9.80;6.15;;;;;;;22.60;62.05;100314.38;4099141;29;20051;-63
2023/07/19 05:16:05;;;;;;;7.63;5.55;;;;;;;22.61;61.85;100316.97;4117127;28;20125;-63
2023/07/19 05:18:08;;;;;;;8.57;5.60;;;;;;;22.56;62.20;100321.59;4095703;28;20051;-63
2023/07/19 05:20:12;;;;;;;12.50;6.78;;;;;;;22.53;62.43;100316.41;4095756;28;20051;-63
2023/07/19 05:22:15;;;;;;;9.30;5.55;;;;;;;22.58;62.09;100321.53;4095991;29;20576;-63
2023/07/19 05:24:18;;;;;;;10.80;5.93;;;;;;;22.59;62.09;100315.28;4093757;28;20051;-63
2023/07/19 05:26:19;;;;;;;7.82;6.32;;;;;;;22.55;62.03;100332.25;4096038;28;20075;-63
2023/07/19 05:28:22;;;;;;;7.93;5.82;;;;;;;22.60;61.66;100325.84;4096579;28;20039;-63
2023/07/19 05:30:27;;;;;;;7.22;5.00;;;;;;;22.63;61.63;100320.44;4104003;28;20086;-63
2023/07/19 05:32:29;;;;;;;15.05;5.70;;;;;;;22.65;61.59;100320.38;4099875;28;20039;-63
2023/07/19 05:34:32;;;;;;;9.52;6.35;;;;;;;22.70;61.47;100322.84;4092781;28;20075;-63
2023/07/19 05:36:37;;;;;;;10.80;5.70;;;;;;;22.65;61.26;100323.03;4094559;28;20050;-63
2023/07/19 05:38:40;;;;;;;10.55;5.63;;;;;;;22.63;61.35;100325.75;4094133;28;20047;-63
2023/07/19 05:40:43;;;;;;;9.63;6.03;;;;;;;22.64;61.21;100330.09;4095276;29;20098;-63
2023/07/19 05:42:46;;;;;;;10.23;5.35;;;;;;;22.70;60.96;100325.50;4095871;28;20107;-63
2023/07/19 05:44:49;;;;;;;8.75;5.85;;;;;;;22.77;60.99;100327.00;4100183;28;20199;-63
2023/07/19 05:46:54;;;;;;;10.75;6.25;;;;;;;22.81;60.81;100328.63;4098070;28;20051;-63
2023/07/19 05:48:57;;;;;;;8.25;5.15;;;;;;;22.85;60.72;100332.84;4099702;28;20043;-63
2023/07/19 05:51:00;;;;;;;12.00;5.88;;;;;;;22.92;60.27;100326.38;4095366;28;20714;-63
2023/07/19 05:53:02;;;;;;;8.48;5.38;;;;;;;23.00;59.89;100329.59;4095217;28;20094;-63
2023/07/19 05:55:08;;;;;;;14.85;7.07;;;;;;;23.01;59.97;100320.75;4098450;28;20051;-63
2023/07/19 05:57:11;;;;;;;11.90;5.25;;;;;;;23.06;59.83;100323.19;4109329;28;20042;-63
2023/07/19 05:59:14;;;;;;;13.55;6.22;;;;;;;23.09;59.66;100320.41;4094879;28;20512;-63
2023/07/19 06:01:17;;;;;;;11.90;6.60;;;;;;;23.16;59.46;100315.78;4094107;29;20062;-63
2023/07/19 06:03:22;;;;;;;9.32;6.57;;;;;;;23.23;59.41;100317.25;4078528;29;20050;-63
2023/07/19 06:05:26;;;;;;;8.90;5.80;;;;;;;23.29;59.04;100318.78;4094665;29;20045;-63
2023/07/19 06:07:29;;;;;;;9.73;5.82;;;;;;;23.37;58.76;100326.44;4109259;28;20046;-63
2023/07/19 06:09:31;;;;;;;7.43;5.63;;;;;;;23.45;58.32;100326.97;4094357;29;20428;-63
2023/07/19 06:11:34;;;;;;;9.43;6.22;;;;;;;23.47;58.35;100317.16;4093288;29;20109;-63
2023/07/19 06:13:37;;;;;;;9.73;5.57;;;;;;;23.37;58.53;100326.44;4112252;28;20042;-63
2023/07/19 06:15:40;;;;;;;9.23;5.32;;;;;;;23.46;58.07;100331.34;4096170;28;20125;-63
2023/07/19 06:17:44;;;;;;;10.98;6.38;;;;;;;23.61;57.79;100332.50;4092083;28;20047;-64
2023/07/19 06:19:48;;;;;;;11.13;5.40;;;;;;;23.72;57.60;100337.38;4090138;29;20059;-63
2023/07/19 06:21:51;;;;;;;10.73;6.07;;;;;;;23.78;57.49;100337.09;4094817;29;20043;-61
2023/07/19 06:23:54;;;;;;;9.50;5.55;;;;;;;23.88;57.42;100336.66;4094673;28;20047;-62
2023/07/19 06:25:57;;;;;;;12.10;6.35;;;;;;;23.93;57.29;100325.84;4095385;29;21135;-61
2023/07/19 06:28:00;;;;;;;9.48;5.38;;;;;;;23.94;56.98;100332.03;4095066;28;20047;-62
2023/07/19 06:30:04;;;;;;;11.60;5.40;;;;;;;24.02;57.45;100343.16;4093938;29;20086;-61
2023/07/19 06:32:07;;;;;;;9.55;6.00;;;;;;;24.02;57.24;100344.03;4096947;29;20039;-61
2023/07/19 06:34:10;;;;;;;8.95;4.90;;;;;;;24.02;57.11;100341.38;4094614;28;20043;-61
2023/07/19 06:36:15;;;;;;;9.25;4.65;;;;;;;24.04;56.90;100336.00;4093996;28;20047;-61
2023/07/19 06:38:17;;;;;;;8.15;5.47;;;;;;;24.05;57.11;100338.59;4095986;28;20134;-61
2023/07/19 06:40:20;;;;;;;8.95;5.63;;;;;;;24.10;56.85;100329.56;4098459;28;20472;-61
2023/07/19 06:42:23;;;;;;;9.40;5.00;;;;;;;24.18;56.47;100340.69;4089999;28;20039;-61
2023/07/19 06:44:29;;;;;;;13.60;6.47;;;;;;;24.09;56.21;100339.31;4105470;28;20053;-61
2023/07/19 06:46:32;;;;;;;11.43;5.72;;;;;;;24.04;56.26;100344.81;4090297;29;20051;-61
2023/07/19 06:48:35;;;;;;;9.25;5.13;;;;;;;24.05;56.28;100335.09;4093869;28;20043;-61
2023/07/19 06:50:37;;;;;;;9.15;5.22;;;;;;;24.15;56.15;100346.13;4090760;29;20047;-61
2023/07/19 06:52:41;;;;;;;10.07;5.15;;;;;;;24.22;55.92;100343.16;4094166;28;20063;-61
2023/07/19 06:54:44;;;;;;;11.50;4.88;;;;;;;24.32;55.68;100343.59;4091567;28;20063;-61
2023/07/19 06:56:46;;;;;;;10.43;6.00;;;;;;;24.36;55.50;100337.22;4091729;28;20101;-61
2023/07/19 06:58:49;;;;;;;7.75;5.03;;;;;;;24.46;55.20;100334.13;4090640;28;20051;-61
2023/07/19 07:00:54;;;;;;;10.38;6.75;;;;;;;24.48;54.78;100333.13;4093569;28;20040;-61
2023/07/19 07:02:59;;;;;;;12.15;5.07;;;;;;;24.47;55.11;100336.72;4091392;28;20047;-61
2023/07/19 07:05:02;;;;;;;9.73;5.30;;;;;;;24.53;55.12;100333.81;4089379;29;20075;-61
2023/07/19 07:07:06;;;;;;;10.73;5.80;;;;;;;24.65;54.89;100329.75;4086746;28;20086;-61
2023/07/19 07:09:10;;;;;;;7.55;4.60;;;;;;;24.78;54.67;100330.03;4088432;29;20087;-61
2023/07/19 07:11:13;;;;;;;;;;;;;;;24.80;54.53;100322.84;4095439;28;20070;-61
2023/07/19 07:13:16;;;;;;;5.82;3.97;;;;;;;24.85;54.31;100328.81;4095003;28;19969;-61
2023/07/19 07:15:19;;;;;;;9.38;4.88;;;;;;;24.95;53.77;100328.38;4091123;28;20134;-62
2023/07/19 07:17:22;;;;;;;11.68;5.75;;;;;;;25.02;53.42;100329.78;4090672;28;20046;-61
2023/07/19 07:19:25;;;;;;;13.07;6.30;;;;;;;25.06;52.71;100334.03;4089259;29;20094;-62
2023/07/19 07:21:27;;;;;;;10.70;5.80;;;;;;;25.06;52.68;100334.88;4087937;29;20114;-61
2023/07/19 07:23:31;;;;;;;8.40;5.05;;;;;;;25.05;52.70;100332.31;4094224;28;20405;-61
2023/07/19 07:25:36;;;;;;;8.77;4.60;;;;;;;25.03;52.66;100329.72;4093498;28;20040;-62
2023/07/19 07:27:39;;;;;;;12.20;5.10;;;;;;;25.05;52.45;100341.13;4095021;28;20544;-62
2023/07/19 07:29:42;;;;;;;11.20;4.80;;;;;;;25.15;52.05;100338.91;4091515;28;20047;-62
2023/07/19 07:31:45;;;;;;;15.98;5.90;;;;;;;25.24;51.49;100343.75;4109137;28;20039;-62
2023/07/19 07:33:48;;;;;;;9.90;5.00;;;;;;;25.20;51.41;100346.66;4094285;28;20118;-61
2023/07/19 07:35:51;;;;;;;10.15;5.10;;;;;;;25.12;51.72;100343.53;4096661;29;20047;-61
2023/07/19 07:37:54;;;;;;;8.15;4.03;;;;;;;25.19;51.85;100339.59;4091082;28;20133;-62
2023/07/19 07:39:57;;;;;;;9.50;5.68;;;;;;;25.25;51.12;100347.31;4098055;28;20091;-61
2023/07/19 07:42:02;;;;;;;10.77;4.72;;;;;;;25.36;50.77;100342.31;4091461;28;20036;-61
2023/07/19 07:44:05;;;;;;;10.38;5.18;;;;;;;25.46;50.02;100336.56;4106510;28;20121;-61
2023/07/19 07:46:08;;;;;;;7.88;4.50;;;;;;;25.50;50.07;100338.16;4093720;28;20070;-61
2023/07/19 07:48:11;;;;;;;6.72;4.07;;;;;;;25.53;49.84;100338.84;4088884;28;20536;-61
2023/07/19 07:50:14;;;;;;;10.73;4.57;;;;;;;25.57;49.93;100334.22;4091679;29;20067;-61
2023/07/19 07:52:17;;;;;;;7.93;4.47;;;;;;;25.56;49.84;100345.81;4092428;28;20048;-61
2023/07/19 07:54:21;;;;;;;10.20;4.28;;;;;;;25.56;49.34;100332.50;4090712;29;20086;-69
2023/07/19 07:56:24;;;;;;;5.30;3.42;;;;;;;25.64;49.57;100330.28;4091767;28;20086;-69
2023/07/19 07:58:28;;;;;;;9.50;4.10;;;;;;;25.72;49.63;100321.94;4094504;28;20040;-69
2023/07/19 08:00:31;;;;;;;;;;;;;;;25.65;49.32;100321.38;4099509;28;20077;-69
2023/07/19 08:02:34;;;;;;;7.70;4.07;;;;;;;25.71;49.43;100320.22;4096375;28;20383;-69
2023/07/19 08:04:37;;;;;;;10.10;3.67;;;;;;;25.78;48.25;100317.13;4101608;29;20051;-69
2023/07/19 08:06:50;;;;;;;7.53;3.85;;;;;;;25.82;48.21;100312.53;4105842;28;20047;-69
2023/07/19 08:08:53;;;;;;;9.13;3.60;;;;;;;25.88;47.95;100314.03;4097715;28;20346;-69
2023/07/19 08:10:56;;;;;;;7.43;3.40;;;;;;;25.90;48.03;100309.47;4093776;28;20404;-69
2023/07/19 08:12:58;;;;;;;6.80;3.90;;;;;;;25.95;47.85;100307.44;4097963;28;20035;-69
2023/07/19 08:15:02;;;;;;;7.85;4.15;;;;;;;26.02;47.34;100306.19;4110317;28;20125;-69
2023/07/19 08:17:05;;;;;;;;;;;;;;;26.01;47.41;100307.13;4092609;28;20050;-69
2023/07/19 08:19:08;;;;;;;9.68;4.40;;;;;;;26.02;47.23;100297.34;4092910;28;19970;-69
2023/07/19 08:21:10;;;;;;;5.65;3.45;;;;;;;26.04;47.04;100303.47;4092239;28;20545;-69
2023/07/19 08:23:31;;;;;;;11.73;4.10;;;;;;;26.10;47.03;100295.97;4093216;28;20095;-69
2023/07/19 08:25:35;;;;;;;7.68;3.47;;;;;;;26.16;46.18;100307.28;4095977;28;20042;-69
2023/07/19 08:27:38;;;;;;;9.70;3.58;;;;;;;26.20;46.33;100300.84;4093883;28;20130;-69
2023/07/19 08:29:41;;;;;;;4.60;3.25;;;;;;;26.23;45.95;100295.34;4092771;28;20489;-69
2023/07/19 08:31:45;;;;;;;7.35;4.32;;;;;;;26.33;45.75;100296.56;4096115;28;20057;-69
2023/07/19 08:33:49;;;;;;;;;;;;;;;26.60;45.27;100294.16;4106057;28;20138;-70
2023/07/19 08:35:52;;;;;;;7.00;3.20;;;;;;;26.54;44.80;100280.34;4096764;28;19932;-69
2023/07/19 08:37:55;;;;;;;7.97;3.90;;;;;;;26.60;44.95;100282.66;4088439;29;20113;-69
2023/07/19 08:39:58;;;;;;;8.73;3.92;;;;;;;26.59;45.42;100280.91;4094899;28;20082;-69
2023/07/19 08:42:02;;;;;;;7.63;3.90;;;;;;;26.67;44.07;100276.03;4095059;28;20401;-69
2023/07/19 08:44:08;;;;;;;7.50;3.58;;;;;;;26.64;44.50;100269.06;4090418;28;20043;-69
2023/07/19 08:46:16;;;;;;;7.78;3.42;;;;;;;26.66;44.46;100271.63;4092149;28;20525;-70
2023/07/19 08:48:21;;;;;;;8.48;3.55;;;;;;;26.76;43.93;100270.19;4092713;28;20476;-69
2023/07/19 08:50:29;;;;;;;6.20;3.42;;;;;;;26.83;43.59;100268.06;4095914;28;20069;-69
2023/07/19 08:52:36;;;;;;;8.48;3.17;;;;;;;26.92;44.32;100272.00;4096096;28;20094;-69
2023/07/19 08:54:41;;;;;;;6.82;3.38;;;;;;;26.98;43.59;100266.31;4087678;28;20047;-69
2023/07/19 08:56:44;;;;;;;6.00;3.13;;;;;;;27.05;43.47;100273.03;4094927;28;20066;-69
2023/07/19 08:58:47;;;;;;;5.97;3.13;;;;;;;27.14;43.58;100269.81;4111676;23;20070;-64
2023/07/19 09:00:51;;;;;;;10.07;3.58;;;;;;;27.21;43.23;100258.78;4101880;28;20101;-65
2023/07/19 09:02:54;;;;;;;12.68;3.70;;;;;;;27.28;42.22;100262.81;4070238;29;20058;-64
2023/07/19 09:05:07;;;;;;;7.78;3.42;;;;;;;27.33;43.11;100256.28;4093797;28;20389;-65
2023/07/19 09:07:13;;;;;;;9.73;3.92;;;;;;;27.36;42.78;100257.91;4087276;29;20521;-64
2023/07/19 09:09:17;;;;;;;4.88;3.25;;;;;;;27.42;43.15;100260.19;4087792;29;20039;-64
2023/07/19 09:11:21;;;;;;;8.13;3.78;;;;;;;27.45;42.29;100260.06;4058326;29;20047;-65
2023/07/19 09:13:24;;;;;;;;;;;;;;;27.38;41.52;100256.03;4090034;29;20039;-65
2023/07/19 09:15:28;;;;;;;5.30;2.88;;;;;;;27.55;41.07;100260.34;4087441;29;19962;-65
2023/07/19 09:17:35;;;;;;;4.68;2.80;;;;;;;27.63;41.52;100249.22;4090035;29;20039;-65
2023/07/19 09:19:42;;;;;;;5.75;2.92;;;;;;;27.71;39.72;100256.75;4084332;29;20110;-65
2023/07/19 09:21:49;;;;;;;8.43;2.83;;;;;;;27.74;38.78;100245.88;4087699;29;20046;-65
2023/07/19 09:23:52;;;;;;;9.63;3.33;;;;;;;27.87;37.83;100241.50;4085807;29;20521;-65
2023/07/19 09:25:56;;;;;;;4.68;2.90;;;;;;;27.91;38.76;100250.19;4090935;29;20060;-65
2023/07/19 09:27:59;;;;;;;5.95;3.13;;;;;;;27.95;38.99;100241.00;4073689;29;20052;-65
2023/07/19 09:30:03;;;;;;;6.65;3.85;;;;;;;28.02;39.35;100242.38;4082314;28;20058;-65
2023/07/19 09:32:07;;;;;;;5.05;2.70;;;;;;;28.13;39.71;100234.56;4081012;29;20047;-64
2023/07/19 09:34:09;;;;;;;;;;;;;;;28.24;39.56;100241.03;4083948;28;20040;-65